sensor_id;sensor_type;location;lat;lon;timestamp;pressure;altitude;pressure_sealevel;temperature;humidity
56719;BME280;42597;40.636;0.278;2023-02-12T00:02:08;98918.75;;;9.86;73.89
56719;BME280;42597;40.636;0.278;2023-02-12T00:04:34;98919.97;;;9.29;71.05
56719;BME280;42597;40.636;0.278;2023-02-12T00:07:00;98914.75;;;8.57;74.99
56719;BME280;42597;40.636;0.278;2023-02-12T00:09:26;98915.97;;;10.19;73.34
56719;BME280;42597;40.636;0.278;2023-02-12T00:11:51;98909.84;;;8.35;70.82
56719;BME280;42597;40.636;0.278;2023-02-12T00:14:17;98911.72;;;9.20;72.93
56719;BME280;42597;40.636;0.278;2023-02-12T00:16:43;98904.75;;;9.52;73.09
56719;BME280;42597;40.636;0.278;2023-02-12T00:19:09;98910.47;;;8.03;67.68
56719;BME280;42597;40.636;0.278;2023-02-12T00:21:34;98901.28;;;7.80;70.16
56719;BME280;42597;40.636;0.278;2023-02-12T00:24:01;98905.97;;;7.69;73.18
56719;BME280;42597;40.636;0.278;2023-02-12T00:26:26;98899.22;;;8.25;74.61
56719;BME280;42597;40.636;0.278;2023-02-12T00:28:53;98890.94;;;8.45;73.46
56719;BME280;42597;40.636;0.278;2023-02-12T00:31:24;98897.41;;;8.20;71.43
56719;BME280;42597;40.636;0.278;2023-02-12T00:33:51;98894.34;;;9.92;74.40
56719;BME280;42597;40.636;0.278;2023-02-12T00:36:19;98900.00;;;9.11;68.62
56719;BME280;42597;40.636;0.278;2023-02-12T00:38:46;98887.78;;;10.53;70.45
56719;BME280;42597;40.636;0.278;2023-02-12T00:41:12;98889.50;;;8.53;68.43
56719;BME280;42597;40.636;0.278;2023-02-12T00:43:38;98889.25;;;8.68;68.47
56719;BME280;42597;40.636;0.278;2023-02-12T00:46:04;98887.56;;;7.81;67.77
56719;BME280;42597;40.636;0.278;2023-02-12T00:48:32;98888.38;;;7.53;77.00
56719;BME280;42597;40.636;0.278;2023-02-12T00:50:58;98893.75;;;7.18;69.34
56719;BME280;42597;40.636;0.278;2023-02-12T00:53:24;98883.47;;;8.13;69.97
56719;BME280;42597;40.636;0.278;2023-02-12T00:55:50;98883.31;;;8.71;71.11
56719;BME280;42597;40.636;0.278;2023-02-12T00:58:16;98879.81;;;8.71;71.23
56719;BME280;42597;40.636;0.278;2023-02-12T01:00:42;98871.16;;;8.74;72.41
56719;BME280;42597;40.636;0.278;2023-02-12T01:03:08;98876.03;;;9.09;74.46
56719;BME280;42597;40.636;0.278;2023-02-12T01:05:34;98868.03;;;9.83;70.13
56719;BME280;42597;40.636;0.278;2023-02-12T01:08:00;98880.53;;;9.14;68.71
56719;BME280;42597;40.636;0.278;2023-02-12T01:10:26;98868.66;;;8.34;69.18
56719;BME280;42597;40.636;0.278;2023-02-12T01:12:52;98861.88;;;8.80;76.71
56719;BME280;42597;40.636;0.278;2023-02-12T01:15:18;98870.00;;;9.31;73.17
56719;BME280;42597;40.636;0.278;2023-02-12T01:17:44;98864.72;;;9.73;68.83
56719;BME280;42597;40.636;0.278;2023-02-12T01:20:13;98856.06;;;10.17;72.00
56719;BME280;42597;40.636;0.278;2023-02-12T01:22:39;98860.38;;;10.18;63.69
56719;BME280;42597;40.636;0.278;2023-02-12T01:25:05;98864.22;;;8.49;68.30
56719;BME280;42597;40.636;0.278;2023-02-12T01:27:31;98864.22;;;8.49;72.00
56719;BME280;42597;40.636;0.278;2023-02-12T01:29:57;98859.97;;;9.18;68.24
56719;BME280;42597;40.636;0.278;2023-02-12T01:32:23;98874.75;;;7.39;69.12
56719;BME280;42597;40.636;0.278;2023-02-12T01:34:49;98865.09;;;7.67;74.97
56719;BME280;42597;40.636;0.278;2023-02-12T01:37:15;98863.44;;;8.00;72.62
56719;BME280;42597;40.636;0.278;2023-02-12T01:39:41;98866.06;;;8.05;66.01
56719;BME280;42597;40.636;0.278;2023-02-12T01:42:12;98863.34;;;9.43;72.12
56719;BME280;42597;40.636;0.278;2023-02-12T01:45:17;98868.50;;;9.58;68.98
56719;BME280;42597;40.636;0.278;2023-02-12T01:47:30;98873.09;;;8.25;67.97
56719;BME280;42597;40.636;0.278;2023-02-12T01:49:56;98882.28;;;7.71;69.69
56719;BME280;42597;40.636;0.278;2023-02-12T01:52:33;98878.56;;;6.59;69.74
56719;BME280;42597;40.636;0.278;2023-02-12T01:55:04;98876.38;;;7.06;67.97
56719;BME280;42597;40.636;0.278;2023-02-12T01:57:34;98874.56;;;6.52;69.21
56719;BME280;42597;40.636;0.278;2023-02-12T02:00:05;98873.00;;;6.40;71.57
56719;BME280;42597;40.636;0.278;2023-02-12T02:02:33;98865.00;;;7.77;72.82
56719;BME280;42597;40.636;0.278;2023-02-12T02:05:00;98855.97;;;10.22;72.79
56719;BME280;42597;40.636;0.278;2023-02-12T02:07:27;98858.75;;;8.30;68.76
56719;BME280;42597;40.636;0.278;2023-02-12T02:09:54;98858.09;;;8.62;68.54
56719;BME280;42597;40.636;0.278;2023-02-12T02:12:20;98857.97;;;8.53;69.49
56719;BME280;42597;40.636;0.278;2023-02-12T02:15:05;98851.91;;;8.99;72.44
56719;BME280;42597;40.636;0.278;2023-02-12T02:23:38;98849.59;;;8.74;71.09
56719;BME280;42597;40.636;0.278;2023-02-12T02:26:32;98837.22;;;9.84;68.51
56719;BME280;42597;40.636;0.278;2023-02-12T02:34:32;98851.38;;;9.16;64.56
56719;BME280;42597;40.636;0.278;2023-02-12T02:37:14;98842.59;;;9.24;72.86
56719;BME280;42597;40.636;0.278;2023-02-12T02:39:54;98843.19;;;8.88;62.14
56719;BME280;42597;40.636;0.278;2023-02-12T02:43:08;98835.38;;;8.68;66.43
56719;BME280;42597;40.636;0.278;2023-02-12T02:45:47;98829.47;;;9.36;67.02
56719;BME280;42597;40.636;0.278;2023-02-12T02:48:19;98840.13;;;9.74;70.95
56719;BME280;42597;40.636;0.278;2023-02-12T02:50:50;98839.16;;;9.98;66.98
56719;BME280;42597;40.636;0.278;2023-02-12T02:53:40;98838.56;;;10.28;69.00
56719;BME280;42597;40.636;0.278;2023-02-12T02:56:13;98840.94;;;9.61;64.04
56719;BME280;42597;40.636;0.278;2023-02-12T02:58:43;98839.25;;;8.62;66.14
56719;BME280;42597;40.636;0.278;2023-02-12T03:01:44;98840.75;;;9.06;69.00
56719;BME280;42597;40.636;0.278;2023-02-12T03:04:20;98841.53;;;8.07;68.11
56719;BME280;42597;40.636;0.278;2023-02-12T03:09:29;98848.75;;;6.95;70.98
56719;BME280;42597;40.636;0.278;2023-02-12T03:12:08;98835.38;;;7.24;70.25
56719;BME280;42597;40.636;0.278;2023-02-12T03:14:39;98845.34;;;7.24;67.91
56719;BME280;42597;40.636;0.278;2023-02-12T03:17:14;98840.47;;;7.55;65.32
56719;BME280;42597;40.636;0.278;2023-02-12T03:19:55;98840.53;;;7.50;70.57
56719;BME280;42597;40.636;0.278;2023-02-12T03:22:30;98842.34;;;7.25;74.96
56719;BME280;42597;40.636;0.278;2023-02-12T03:25:16;98841.28;;;6.48;68.10
56719;BME280;42597;40.636;0.278;2023-02-12T03:27:43;98840.25;;;6.33;68.87
56719;BME280;42597;40.636;0.278;2023-02-12T03:30:12;98828.84;;;8.31;76.72
56719;BME280;42597;40.636;0.278;2023-02-12T03:36:09;98834.03;;;7.22;72.67
56719;BME280;42597;40.636;0.278;2023-02-12T03:40:53;98836.00;;;7.11;71.39
56719;BME280;42597;40.636;0.278;2023-02-12T03:43:47;98830.44;;;8.37;72.65
56719;BME280;42597;40.636;0.278;2023-02-12T03:46:24;98828.69;;;8.47;68.83
56719;BME280;42597;40.636;0.278;2023-02-12T03:49:06;98829.16;;;7.58;63.33
56719;BME280;42597;40.636;0.278;2023-02-12T03:51:41;98825.19;;;8.65;73.13
56719;BME280;42597;40.636;0.278;2023-02-12T03:54:09;98820.69;;;9.12;68.46
56719;BME280;42597;40.636;0.278;2023-02-12T03:59:03;98828.53;;;9.27;70.70
56719;BME280;42597;40.636;0.278;2023-02-12T04:01:30;98826.50;;;8.86;70.71
56719;BME280;42597;40.636;0.278;2023-02-12T04:03:58;98828.94;;;8.02;62.26
56719;BME280;42597;40.636;0.278;2023-02-12T04:06:26;98833.47;;;9.06;71.79
56719;BME280;42597;40.636;0.278;2023-02-12T04:08:54;98833.50;;;8.50;66.79
56719;BME280;42597;40.636;0.278;2023-02-12T04:14:07;98819.75;;;8.27;68.40
56719;BME280;42597;40.636;0.278;2023-02-12T04:22:45;98818.84;;;7.65;66.55
56719;BME280;42597;40.636;0.278;2023-02-12T04:25:21;98811.16;;;8.49;70.05
56719;BME280;42597;40.636;0.278;2023-02-12T04:28:47;98820.75;;;8.31;71.68
56719;BME280;42597;40.636;0.278;2023-02-12T04:31:02;98826.34;;;8.97;69.11
56719;BME280;42597;40.636;0.278;2023-02-12T04:33:44;98824.13;;;7.75;67.75
56719;BME280;42597;40.636;0.278;2023-02-12T04:36:19;98811.16;;;8.25;70.18
56719;BME280;42597;40.636;0.278;2023-02-12T04:38:51;98812.38;;;8.57;69.61
56719;BME280;42597;40.636;0.278;2023-02-12T04:41:18;98819.06;;;8.78;69.84
56719;BME280;42597;40.636;0.278;2023-02-12T04:43:44;98826.84;;;7.17;67.30
56719;BME280;42597;40.636;0.278;2023-02-12T04:46:09;98818.63;;;8.71;74.26
56719;BME280;42597;40.636;0.278;2023-02-12T04:48:55;98818.06;;;8.74;74.93
56719;BME280;42597;40.636;0.278;2023-02-12T04:51:22;98814.78;;;8.77;72.18
56719;BME280;42597;40.636;0.278;2023-02-12T04:53:47;98814.81;;;9.10;69.04
56719;BME280;42597;40.636;0.278;2023-02-12T04:56:13;98818.72;;;7.75;65.14
56719;BME280;42597;40.636;0.278;2023-02-12T04:58:40;98817.53;;;8.91;72.93
56719;BME280;42597;40.636;0.278;2023-02-12T05:01:06;98823.75;;;7.58;66.45
56719;BME280;42597;40.636;0.278;2023-02-12T05:03:33;98825.66;;;7.28;73.28
56719;BME280;42597;40.636;0.278;2023-02-12T05:06:08;98832.69;;;7.24;72.34
56719;BME280;42597;40.636;0.278;2023-02-12T05:08:34;98823.88;;;7.96;70.54
56719;BME280;42597;40.636;0.278;2023-02-12T05:11:07;98825.69;;;8.86;71.08
56719;BME280;42597;40.636;0.278;2023-02-12T05:13:34;98815.88;;;7.90;69.16
56719;BME280;42597;40.636;0.278;2023-02-12T05:16:03;98816.41;;;8.35;72.81
56719;BME280;42597;40.636;0.278;2023-02-12T05:18:29;98825.84;;;8.76;71.62
56719;BME280;42597;40.636;0.278;2023-02-12T05:20:58;98835.38;;;7.24;68.27
56719;BME280;42597;40.636;0.278;2023-02-12T05:23:26;98833.44;;;7.83;70.39
56719;BME280;42597;40.636;0.278;2023-02-12T05:25:52;98834.34;;;7.20;70.30
56719;BME280;42597;40.636;0.278;2023-02-12T05:28:18;98829.41;;;7.27;71.24
56719;BME280;42597;40.636;0.278;2023-02-12T05:30:44;98837.25;;;7.82;73.68
56719;BME280;42597;40.636;0.278;2023-02-12T05:33:09;98834.97;;;7.41;71.19
56719;BME280;42597;40.636;0.278;2023-02-12T05:35:35;98842.44;;;7.73;72.96
56719;BME280;42597;40.636;0.278;2023-02-12T05:38:01;98846.75;;;8.65;75.40
56719;BME280;42597;40.636;0.278;2023-02-12T05:40:26;98832.84;;;8.34;74.29
56719;BME280;42597;40.636;0.278;2023-02-12T05:42:52;98840.63;;;7.93;70.88
56719;BME280;42597;40.636;0.278;2023-02-12T05:45:18;98844.81;;;6.87;70.17
56719;BME280;42597;40.636;0.278;2023-02-12T05:47:43;98839.63;;;7.83;76.27
56719;BME280;42597;40.636;0.278;2023-02-12T05:50:09;98847.31;;;7.42;70.95
56719;BME280;42597;40.636;0.278;2023-02-12T05:52:35;98848.75;;;6.51;70.18
56719;BME280;42597;40.636;0.278;2023-02-12T05:55:01;98847.78;;;7.20;72.88
56719;BME280;42597;40.636;0.278;2023-02-12T05:57:26;98849.19;;;7.41;71.67
56719;BME280;42597;40.636;0.278;2023-02-12T05:59:52;98851.06;;;8.85;71.17
56719;BME280;42597;40.636;0.278;2023-02-12T06:02:18;98852.22;;;8.36;68.87
56719;BME280;42597;40.636;0.278;2023-02-12T06:04:43;98855.91;;;7.73;67.11
56719;BME280;42597;40.636;0.278;2023-02-12T06:07:09;98848.25;;;6.93;74.05
56719;BME280;42597;40.636;0.278;2023-02-12T06:09:36;98850.56;;;7.68;71.53
56719;BME280;42597;40.636;0.278;2023-02-12T06:12:01;98856.06;;;8.30;70.00
56719;BME280;42597;40.636;0.278;2023-02-12T06:14:27;98845.28;;;8.30;71.37
56719;BME280;42597;40.636;0.278;2023-02-12T06:16:53;98848.19;;;8.76;68.92
56719;BME280;42597;40.636;0.278;2023-02-12T06:19:19;98847.13;;;8.34;68.31
56719;BME280;42597;40.636;0.278;2023-02-12T06:21:45;98853.44;;;8.49;72.27
56719;BME280;42597;40.636;0.278;2023-02-12T06:24:12;98844.84;;;7.99;68.22
56719;BME280;42597;40.636;0.278;2023-02-12T06:26:38;98842.81;;;10.93;67.00
56719;BME280;42597;40.636;0.278;2023-02-12T06:29:04;98830.94;;;11.70;62.00
56719;BME280;42597;40.636;0.278;2023-02-12T06:31:32;98830.03;;;10.85;61.18
56719;BME280;42597;40.636;0.278;2023-02-12T06:34:00;98847.31;;;9.32;65.35
56719;BME280;42597;40.636;0.278;2023-02-12T06:36:27;98849.41;;;9.68;67.36
56719;BME280;42597;40.636;0.278;2023-02-12T06:38:53;98845.63;;;7.75;66.13
56719;BME280;42597;40.636;0.278;2023-02-12T06:41:19;98853.69;;;7.80;66.72
56719;BME280;42597;40.636;0.278;2023-02-12T06:43:44;98851.50;;;9.57;72.14
56719;BME280;42597;40.636;0.278;2023-02-12T06:46:10;98862.25;;;8.54;70.44
56719;BME280;42597;40.636;0.278;2023-02-12T06:48:36;98856.94;;;8.25;72.94
56719;BME280;42597;40.636;0.278;2023-02-12T06:51:08;98866.56;;;7.25;67.18
56719;BME280;42597;40.636;0.278;2023-02-12T06:53:35;98864.56;;;8.18;69.30
56719;BME280;42597;40.636;0.278;2023-02-12T06:56:04;98872.03;;;7.10;68.03
56719;BME280;42597;40.636;0.278;2023-02-12T06:58:31;98860.69;;;7.47;71.86
56719;BME280;42597;40.636;0.278;2023-02-12T07:01:16;98865.34;;;7.41;72.43
56719;BME280;42597;40.636;0.278;2023-02-12T07:03:50;98873.53;;;6.37;70.12
56719;BME280;42597;40.636;0.278;2023-02-12T07:06:16;98863.38;;;7.52;74.02
56719;BME280;42597;40.636;0.278;2023-02-12T07:08:42;98866.06;;;7.18;73.44
56719;BME280;42597;40.636;0.278;2023-02-12T07:11:09;98869.06;;;6.72;74.18
56719;BME280;42597;40.636;0.278;2023-02-12T07:13:35;98872.03;;;6.71;71.41
56719;BME280;42597;40.636;0.278;2023-02-12T07:16:09;98869.28;;;7.20;71.43
56719;BME280;42597;40.636;0.278;2023-02-12T07:18:35;98879.25;;;7.14;72.46
56719;BME280;42597;40.636;0.278;2023-02-12T07:21:02;98884.22;;;7.36;72.31
56719;BME280;42597;40.636;0.278;2023-02-12T07:23:28;98882.78;;;8.88;75.07
56719;BME280;42597;40.636;0.278;2023-02-12T07:25:57;98882.28;;;7.08;73.38
56719;BME280;42597;40.636;0.278;2023-02-12T07:28:23;98885.88;;;7.27;70.79
56719;BME280;42597;40.636;0.278;2023-02-12T07:30:49;98881.88;;;6.85;71.02
56719;BME280;42597;40.636;0.278;2023-02-12T07:33:15;98878.00;;;9.36;73.79
56719;BME280;42597;40.636;0.278;2023-02-12T07:35:41;98883.09;;;10.17;66.41
56719;BME280;42597;40.636;0.278;2023-02-12T07:38:07;98879.09;;;8.65;68.03
56719;BME280;42597;40.636;0.278;2023-02-12T07:40:32;98889.88;;;7.93;69.38
56719;BME280;42597;40.636;0.278;2023-02-12T07:42:58;98889.38;;;9.01;71.87
56719;BME280;42597;40.636;0.278;2023-02-12T07:45:24;98876.75;;;8.77;71.26
56719;BME280;42597;40.636;0.278;2023-02-12T07:47:49;98881.94;;;8.93;70.87
56719;BME280;42597;40.636;0.278;2023-02-12T07:50:15;98887.81;;;9.79;67.91
56719;BME280;42597;40.636;0.278;2023-02-12T07:52:41;98890.53;;;9.13;71.57
56719;BME280;42597;40.636;0.278;2023-02-12T07:55:07;98886.72;;;9.33;68.78
56719;BME280;42597;40.636;0.278;2023-02-12T07:57:35;98897.66;;;7.95;66.44
56719;BME280;42597;40.636;0.278;2023-02-12T08:00:03;98895.25;;;9.03;67.87
56719;BME280;42597;40.636;0.278;2023-02-12T08:02:29;98903.03;;;8.67;72.49
56719;BME280;42597;40.636;0.278;2023-02-12T08:04:56;98898.28;;;8.34;67.62
56719;BME280;42597;40.636;0.278;2023-02-12T08:07:22;98896.63;;;9.00;67.04
56719;BME280;42597;40.636;0.278;2023-02-12T08:09:48;98907.53;;;8.04;67.78
56719;BME280;42597;40.636;0.278;2023-02-12T08:12:13;98899.00;;;8.21;70.32
56719;BME280;42597;40.636;0.278;2023-02-12T08:14:39;98897.31;;;8.25;68.59
56719;BME280;42597;40.636;0.278;2023-02-12T08:17:05;98902.94;;;8.05;68.69
56719;BME280;42597;40.636;0.278;2023-02-12T08:19:30;98896.19;;;7.15;70.90
56719;BME280;42597;40.636;0.278;2023-02-12T08:21:56;98911.97;;;6.87;72.53
56719;BME280;42597;40.636;0.278;2023-02-12T08:24:23;98905.03;;;7.21;73.95
56719;BME280;42597;40.636;0.278;2023-02-12T08:26:49;98912.91;;;7.07;71.41
56719;BME280;42597;40.636;0.278;2023-02-12T08:29:21;98906.34;;;7.86;76.37
56719;BME280;42597;40.636;0.278;2023-02-12T08:31:48;98902.31;;;8.13;69.39
56719;BME280;42597;40.636;0.278;2023-02-12T08:34:20;98905.47;;;8.87;69.15
56719;BME280;42597;40.636;0.278;2023-02-12T08:36:47;98904.38;;;7.68;68.65
56719;BME280;42597;40.636;0.278;2023-02-12T08:39:13;98906.31;;;7.28;69.47
56719;BME280;42597;40.636;0.278;2023-02-12T08:41:39;98911.16;;;7.26;70.63
56719;BME280;42597;40.636;0.278;2023-02-12T08:44:06;98906.53;;;7.66;71.45
56719;BME280;42597;40.636;0.278;2023-02-12T08:46:34;98912.22;;;7.59;69.04
56719;BME280;42597;40.636;0.278;2023-02-12T08:49:03;98905.63;;;8.05;71.82
56719;BME280;42597;40.636;0.278;2023-02-12T08:51:31;98910.50;;;7.45;71.77
56719;BME280;42597;40.636;0.278;2023-02-12T08:54:02;98900.59;;;7.69;71.47
56719;BME280;42597;40.636;0.278;2023-02-12T08:56:30;98912.25;;;7.25;71.52
56719;BME280;42597;40.636;0.278;2023-02-12T08:58:57;98907.03;;;7.05;73.32
56719;BME280;42597;40.636;0.278;2023-02-12T09:01:25;98906.03;;;6.90;73.91
56719;BME280;42597;40.636;0.278;2023-02-12T09:03:52;98904.28;;;7.10;73.21
56719;BME280;42597;40.636;0.278;2023-02-12T09:06:20;98914.75;;;7.16;72.78
56719;BME280;42597;40.636;0.278;2023-02-12T09:08:46;98909.41;;;7.46;71.58
56719;BME280;42597;40.636;0.278;2023-02-12T09:11:14;98907.38;;;7.32;72.03
56719;BME280;42597;40.636;0.278;2023-02-12T09:13:45;98904.53;;;7.48;71.46
56719;BME280;42597;40.636;0.278;2023-02-12T09:16:12;98897.28;;;7.77;72.37
56719;BME280;42597;40.636;0.278;2023-02-12T09:18:38;98890.41;;;7.66;70.83
56719;BME280;42597;40.636;0.278;2023-02-12T09:21:09;98904.19;;;7.25;74.50
56719;BME280;42597;40.636;0.278;2023-02-12T09:23:35;98894.91;;;7.41;72.78
56719;BME280;42597;40.636;0.278;2023-02-12T09:26:10;98893.22;;;7.51;72.51
56719;BME280;42597;40.636;0.278;2023-02-12T09:28:37;98890.03;;;7.49;72.78
56719;BME280;42597;40.636;0.278;2023-02-12T09:31:05;98890.03;;;7.49;73.96
56719;BME280;42597;40.636;0.278;2023-02-12T09:33:31;98887.09;;;8.70;74.45
56719;BME280;42597;40.636;0.278;2023-02-12T09:36:04;98893.50;;;9.12;68.34
56719;BME280;42597;40.636;0.278;2023-02-12T09:38:30;98894.69;;;8.20;70.99
56719;BME280;42597;40.636;0.278;2023-02-12T09:46:51;98896.72;;;7.80;74.44
56719;BME280;42597;40.636;0.278;2023-02-12T09:51:48;98887.63;;;9.10;73.58
56719;BME280;42597;40.636;0.278;2023-02-12T09:54:20;98882.75;;;9.77;66.26
56719;BME280;42597;40.636;0.278;2023-02-12T09:56:51;98880.28;;;10.50;68.68
56719;BME280;42597;40.636;0.278;2023-02-12T09:59:46;98885.19;;;9.27;67.88
56719;BME280;42597;40.636;0.278;2023-02-12T10:02:14;98885.06;;;9.51;70.58
56719;BME280;42597;40.636;0.278;2023-02-12T10:04:42;98895.47;;;8.69;70.04
56719;BME280;42597;40.636;0.278;2023-02-12T10:07:25;98889.88;;;8.17;71.59
56719;BME280;42597;40.636;0.278;2023-02-12T10:10:17;98893.06;;;8.67;71.83
56719;BME280;42597;40.636;0.278;2023-02-12T10:12:55;98884.38;;;8.27;72.39
56719;BME280;42597;40.636;0.278;2023-02-12T10:20:56;98900.78;;;10.23;64.14
56719;BME280;42597;40.636;0.278;2023-02-12T10:26:32;98892.53;;;10.83;66.69
56719;BME280;42597;40.636;0.278;2023-02-12T10:29:33;98905.19;;;10.33;62.80
56719;BME280;42597;40.636;0.278;2023-02-12T10:32:05;98897.13;;;11.42;63.03
56719;BME280;42597;40.636;0.278;2023-02-12T10:34:34;98899.56;;;10.57;62.38
56719;BME280;42597;40.636;0.278;2023-02-12T10:37:16;98885.81;;;11.17;61.36
56719;BME280;42597;40.636;0.278;2023-02-12T10:39:51;98879.63;;;11.93;61.71
56719;BME280;42597;40.636;0.278;2023-02-12T10:42:40;98874.13;;;12.55;57.18
56719;BME280;42597;40.636;0.278;2023-02-12T10:45:17;98884.44;;;12.35;58.05
56719;BME280;42597;40.636;0.278;2023-02-12T10:47:45;98887.50;;;11.80;56.81
56719;BME280;42597;40.636;0.278;2023-02-12T10:50:47;98885.69;;;11.45;59.16
56719;BME280;42597;40.636;0.278;2023-02-12T10:53:21;98875.72;;;12.07;57.21
56719;BME280;42597;40.636;0.278;2023-02-12T10:55:47;98875.97;;;11.66;58.15
56719;BME280;42597;40.636;0.278;2023-02-12T10:58:20;98895.13;;;10.88;60.88
56719;BME280;42597;40.636;0.278;2023-02-12T11:00:55;98885.31;;;11.82;60.43
56719;BME280;42597;40.636;0.278;2023-02-12T11:03:26;98885.22;;;11.74;57.67
56719;BME280;42597;40.636;0.278;2023-02-12T11:05:52;98886.50;;;11.90;59.88
56719;BME280;42597;40.636;0.278;2023-02-12T11:10:53;98891.91;;;10.50;64.59
56719;BME280;42597;40.636;0.278;2023-02-12T11:13:24;98881.53;;;11.70;57.45
56719;BME280;42597;40.636;0.278;2023-02-12T11:15:52;98880.25;;;12.87;56.98
56719;BME280;42597;40.636;0.278;2023-02-12T11:18:23;98879.38;;;11.80;59.95
56719;BME280;42597;40.636;0.278;2023-02-12T11:21:08;98881.94;;;12.08;59.43
56719;BME280;42597;40.636;0.278;2023-02-12T11:23:35;98880.34;;;11.31;57.42
56719;BME280;42597;40.636;0.278;2023-02-12T11:26:05;98884.69;;;10.96;61.34
56719;BME280;42597;40.636;0.278;2023-02-12T11:28:34;98871.25;;;11.80;61.53
56719;BME280;42597;40.636;0.278;2023-02-12T11:31:20;98869.66;;;12.59;57.75
56719;BME280;42597;40.636;0.278;2023-02-12T11:34:08;98861.34;;;11.00;59.12
56719;BME280;42597;40.636;0.278;2023-02-12T11:36:50;98858.84;;;11.79;59.93
56719;BME280;42597;40.636;0.278;2023-02-12T11:39:47;98860.06;;;11.42;59.27
56719;BME280;42597;40.636;0.278;2023-02-12T11:42:19;98842.97;;;12.26;61.79
56719;BME280;42597;40.636;0.278;2023-02-12T11:44:55;98855.97;;;12.07;59.76
56719;BME280;42597;40.636;0.278;2023-02-12T11:47:27;98858.06;;;9.98;59.64
56719;BME280;42597;40.636;0.278;2023-02-12T11:50:00;98862.75;;;10.06;61.26
56719;BME280;42597;40.636;0.278;2023-02-12T11:52:31;98857.56;;;10.23;60.83
56719;BME280;42597;40.636;0.278;2023-02-12T11:57:48;98836.66;;;12.08;63.24
56719;BME280;42597;40.636;0.278;2023-02-12T12:02:58;98830.41;;;12.65;62.92
56719;BME280;42597;40.636;0.278;2023-02-12T12:05:33;98822.59;;;12.90;59.34
56719;BME280;42597;40.636;0.278;2023-02-12T12:08:08;98820.53;;;12.69;61.98
56719;BME280;42597;40.636;0.278;2023-02-12T12:10:43;98831.41;;;11.72;56.98
56719;BME280;42597;40.636;0.278;2023-02-12T12:13:19;98833.72;;;10.53;60.18
56719;BME280;42597;40.636;0.278;2023-02-12T12:15:52;98824.03;;;12.44;66.79
56719;BME280;42597;40.636;0.278;2023-02-12T12:19:33;98822.16;;;11.73;55.28
56719;BME280;42597;40.636;0.278;2023-02-12T12:25:29;98825.06;;;11.23;61.77
56719;BME280;42597;40.636;0.278;2023-02-12T12:33:16;98810.66;;;10.69;59.27
56719;BME280;42597;40.636;0.278;2023-02-12T12:47:26;98810.44;;;10.43;62.54
56719;BME280;42597;40.636;0.278;2023-02-12T13:04:19;98782.56;;;12.34;61.49
56719;BME280;42597;40.636;0.278;2023-02-12T13:15:14;98777.84;;;10.62;62.10
56719;BME280;42597;40.636;0.278;2023-02-12T13:17:56;98778.41;;;10.23;64.19
56719;BME280;42597;40.636;0.278;2023-02-12T13:23:04;98770.91;;;10.20;63.51
56719;BME280;42597;40.636;0.278;2023-02-12T13:28:13;98775.13;;;10.12;64.12
56719;BME280;42597;40.636;0.278;2023-02-12T13:30:48;98768.31;;;10.28;64.43
56719;BME280;42597;40.636;0.278;2023-02-12T13:33:32;98771.22;;;10.18;64.14
56719;BME280;42597;40.636;0.278;2023-02-12T13:36:02;98770.44;;;10.04;64.00
56719;BME280;42597;40.636;0.278;2023-02-12T13:38:32;98765.16;;;10.26;63.95
56719;BME280;42597;40.636;0.278;2023-02-12T13:41:04;98758.69;;;10.50;64.23
56719;BME280;42597;40.636;0.278;2023-02-12T13:54:19;98743.50;;;10.85;65.95
56719;BME280;42597;40.636;0.278;2023-02-12T13:56:50;98746.03;;;10.59;62.25
56719;BME280;42597;40.636;0.278;2023-02-12T14:02:01;98750.16;;;10.06;64.95
56719;BME280;42597;40.636;0.278;2023-02-12T14:04:33;98752.31;;;10.18;64.94
56719;BME280;42597;40.636;0.278;2023-02-12T14:07:05;98738.13;;;10.26;65.19
56719;BME280;42597;40.636;0.278;2023-02-12T14:15:05;98739.94;;;10.17;65.14
56719;BME280;42597;40.636;0.278;2023-02-12T14:27:51;98743.81;;;10.11;66.92
56719;BME280;42597;40.636;0.278;2023-02-12T14:38:02;98748.91;;;10.12;67.40
56719;BME280;42597;40.636;0.278;2023-02-12T14:43:33;98744.75;;;10.06;67.77
56719;BME280;42597;40.636;0.278;2023-02-12T14:48:54;98750.22;;;10.29;69.15
56719;BME280;42597;40.636;0.278;2023-02-12T14:51:41;98737.41;;;12.13;67.67
56719;BME280;42597;40.636;0.278;2023-02-12T14:54:20;98749.78;;;11.25;62.67
56719;BME280;42597;40.636;0.278;2023-02-12T14:56:50;98746.28;;;11.25;63.27
56719;BME280;42597;40.636;0.278;2023-02-12T14:59:20;98737.91;;;10.23;69.72
56719;BME280;42597;40.636;0.278;2023-02-12T15:01:48;98746.31;;;10.21;68.92
56719;BME280;42597;40.636;0.278;2023-02-12T15:04:27;98744.16;;;9.96;70.57
56719;BME280;42597;40.636;0.278;2023-02-12T15:07:02;98743.06;;;11.14;69.33
56719;BME280;42597;40.636;0.278;2023-02-12T15:09:51;98750.94;;;10.07;70.05
56719;BME280;42597;40.636;0.278;2023-02-12T15:12:20;98739.63;;;10.05;70.46
56719;BME280;42597;40.636;0.278;2023-02-12T15:15:04;98738.53;;;10.06;70.38
56719;BME280;42597;40.636;0.278;2023-02-12T15:17:36;98742.91;;;10.16;70.36
56719;BME280;42597;40.636;0.278;2023-02-12T15:20:11;98746.81;;;10.23;70.85
56719;BME280;42597;40.636;0.278;2023-02-12T15:22:41;98745.06;;;9.91;71.46
56719;BME280;42597;40.636;0.278;2023-02-12T15:25:33;98742.53;;;10.08;71.62
56719;BME280;42597;40.636;0.278;2023-02-12T15:28:03;98743.53;;;9.99;71.68
56719;BME280;42597;40.636;0.278;2023-02-12T15:30:36;98748.84;;;10.04;71.79
56719;BME280;42597;40.636;0.278;2023-02-12T15:33:04;98739.50;;;10.60;70.49
56719;BME280;42597;40.636;0.278;2023-02-12T15:35:32;98733.59;;;12.31;68.25
56719;BME280;42597;40.636;0.278;2023-02-12T15:37:59;98738.69;;;12.32;65.58
56719;BME280;42597;40.636;0.278;2023-02-12T15:40:27;98736.47;;;11.77;64.45
56719;BME280;42597;40.636;0.278;2023-02-12T15:43:02;98736.25;;;11.25;67.08
56719;BME280;42597;40.636;0.278;2023-02-12T15:45:33;98741.84;;;10.53;69.27
56719;BME280;42597;40.636;0.278;2023-02-12T15:50:43;98745.44;;;10.26;70.75
56719;BME280;42597;40.636;0.278;2023-02-12T15:53:11;98743.97;;;9.78;71.26
56719;BME280;42597;40.636;0.278;2023-02-12T15:55:40;98752.66;;;10.03;70.60
56719;BME280;42597;40.636;0.278;2023-02-12T15:58:52;98747.34;;;9.98;71.33